sensor_id;sensor_type;location;lat;lon;timestamp;P1;durP1;ratioP1;P2;durP2;ratioP2
34102;SDS011;20381;54.498;18.206;2022-09-09T00:06:24;6.08;;;1.07;;
34102;SDS011;20381;54.498;18.206;2022-09-09T00:17:22;3.42;;;1.10;;
34102;SDS011;20381;54.498;18.206;2022-09-09T00:20:12;3.98;;;1.47;;
34102;SDS011;20381;54.498;18.206;2022-09-09T00:22:53;3.37;;;1.70;;
34102;SDS011;20381;54.498;18.206;2022-09-09T00:25:31;5.50;;;1.40;;
34102;SDS011;20381;54.498;18.206;2022-09-09T00:28:00;4.90;;;1.70;;
34102;SDS011;20381;54.498;18.206;2022-09-09T00:30:29;6.87;;;1.30;;
34102;SDS011;20381;54.498;18.206;2022-09-09T00:33:01;4.25;;;1.50;;
34102;SDS011;20381;54.498;18.206;2022-09-09T00:35:32;5.05;;;1.20;;
34102;SDS011;20381;54.498;18.206;2022-09-09T00:38:13;5.17;;;1.70;;
34102;SDS011;20381;54.498;18.206;2022-09-09T00:43:30;1.45;;;1.00;;
34102;SDS011;20381;54.498;18.206;2022-09-09T00:52:04;7.03;;;1.55;;
34102;SDS011;20381;54.498;18.206;2022-09-09T00:57:34;3.40;;;1.32;;
34102;SDS011;20381;54.498;18.206;2022-09-09T01:03:06;2.62;;;1.40;;
34102;SDS011;20381;54.498;18.206;2022-09-09T01:06:11;3.30;;;1.57;;
34102;SDS011;20381;54.498;18.206;2022-09-09T01:12:02;3.10;;;1.27;;
34102;SDS011;20381;54.498;18.206;2022-09-09T01:20:12;4.03;;;1.70;;
34102;SDS011;20381;54.498;18.206;2022-09-09T01:25:28;2.15;;;1.27;;
34102;SDS011;20381;54.498;18.206;2022-09-09T01:30:57;2.65;;;1.65;;
34102;SDS011;20381;54.498;18.206;2022-09-09T01:38:38;2.20;;;1.27;;
34102;SDS011;20381;54.498;18.206;2022-09-09T01:41:05;2.47;;;1.40;;
34102;SDS011;20381;54.498;18.206;2022-09-09T01:43:31;5.70;;;1.70;;
34102;SDS011;20381;54.498;18.206;2022-09-09T01:45:59;2.17;;;1.30;;
34102;SDS011;20381;54.498;18.206;2022-09-09T01:48:27;3.33;;;1.42;;
34102;SDS011;20381;54.498;18.206;2022-09-09T01:50:54;2.50;;;1.40;;
34102;SDS011;20381;54.498;18.206;2022-09-09T01:53:21;2.83;;;1.70;;
34102;SDS011;20381;54.498;18.206;2022-09-09T02:07:28;1.90;;;1.30;;
34102;SDS011;20381;54.498;18.206;2022-09-09T02:10:10;1.87;;;1.40;;
34102;SDS011;20381;54.498;18.206;2022-09-09T02:12:54;3.27;;;1.65;;
34102;SDS011;20381;54.498;18.206;2022-09-09T02:18:06;6.45;;;1.35;;
34102;SDS011;20381;54.498;18.206;2022-09-09T02:20:36;3.62;;;1.47;;
34102;SDS011;20381;54.498;18.206;2022-09-09T02:23:04;2.70;;;1.60;;
34102;SDS011;20381;54.498;18.206;2022-09-09T02:25:34;4.35;;;1.32;;
34102;SDS011;20381;54.498;18.206;2022-09-09T02:28:04;5.03;;;1.47;;
34102;SDS011;20381;54.498;18.206;2022-09-09T02:30:33;7.05;;;1.80;;
34102;SDS011;20381;54.498;18.206;2022-09-09T02:33:03;2.17;;;1.20;;
34102;SDS011;20381;54.498;18.206;2022-09-09T02:35:32;3.58;;;1.27;;
34102;SDS011;20381;54.498;18.206;2022-09-09T02:38:03;2.98;;;1.50;;
34102;SDS011;20381;54.498;18.206;2022-09-09T02:40:34;5.75;;;1.80;;
34102;SDS011;20381;54.498;18.206;2022-09-09T02:43:00;2.08;;;1.20;;
34102;SDS011;20381;54.498;18.206;2022-09-09T02:45:47;4.92;;;1.20;;
34102;SDS011;20381;54.498;18.206;2022-09-09T02:48:35;9.45;;;1.47;;
34102;SDS011;20381;54.498;18.206;2022-09-09T02:54:27;3.02;;;1.45;;
34102;SDS011;20381;54.498;18.206;2022-09-09T02:57:13;5.10;;;1.65;;
34102;SDS011;20381;54.498;18.206;2022-09-09T02:59:44;2.33;;;1.22;;
34102;SDS011;20381;54.498;18.206;2022-09-09T03:02:11;2.90;;;1.17;;
34102;SDS011;20381;54.498;18.206;2022-09-09T03:04:38;6.37;;;1.80;;
34102;SDS011;20381;54.498;18.206;2022-09-09T03:07:07;1.32;;;1.10;;
34102;SDS011;20381;54.498;18.206;2022-09-09T03:09:33;4.90;;;1.30;;
34102;SDS011;20381;54.498;18.206;2022-09-09T03:12:00;3.67;;;1.40;;
34102;SDS011;20381;54.498;18.206;2022-09-09T03:16:54;2.15;;;1.25;;
34102;SDS011;20381;54.498;18.206;2022-09-09T03:19:21;3.87;;;1.37;;
34102;SDS011;20381;54.498;18.206;2022-09-09T03:21:48;4.27;;;1.20;;
34102;SDS011;20381;54.498;18.206;2022-09-09T03:24:15;9.50;;;1.73;;
34102;SDS011;20381;54.498;18.206;2022-09-09T03:26:42;5.90;;;1.37;;
34102;SDS011;20381;54.498;18.206;2022-09-09T03:29:10;4.42;;;1.40;;
34102;SDS011;20381;54.498;18.206;2022-09-09T03:31:38;4.15;;;1.40;;
34102;SDS011;20381;54.498;18.206;2022-09-09T03:36:31;2.80;;;1.70;;
34102;SDS011;20381;54.498;18.206;2022-09-09T03:38:58;2.40;;;1.30;;
34102;SDS011;20381;54.498;18.206;2022-09-09T03:41:26;6.58;;;1.42;;
34102;SDS011;20381;54.498;18.206;2022-09-09T03:43:53;3.42;;;1.60;;
34102;SDS011;20381;54.498;18.206;2022-09-09T03:46:20;5.15;;;1.45;;
34102;SDS011;20381;54.498;18.206;2022-09-09T03:48:49;4.10;;;1.77;;
34102;SDS011;20381;54.498;18.206;2022-09-09T03:51:17;2.00;;;1.40;;
34102;SDS011;20381;54.498;18.206;2022-09-09T03:53:44;3.92;;;1.82;;
34102;SDS011;20381;54.498;18.206;2022-09-09T03:58:38;5.93;;;1.47;;
34102;SDS011;20381;54.498;18.206;2022-09-09T04:01:05;2.35;;;1.40;;
34102;SDS011;20381;54.498;18.206;2022-09-09T04:03:35;3.37;;;1.60;;
34102;SDS011;20381;54.498;18.206;2022-09-09T04:06:02;2.40;;;1.27;;
34102;SDS011;20381;54.498;18.206;2022-09-09T04:08:31;9.75;;;1.87;;
34102;SDS011;20381;54.498;18.206;2022-09-09T04:10:58;6.03;;;2.37;;
34102;SDS011;20381;54.498;18.206;2022-09-09T04:13:27;6.35;;;1.75;;
34102;SDS011;20381;54.498;18.206;2022-09-09T04:15:55;2.12;;;1.60;;
34102;SDS011;20381;54.498;18.206;2022-09-09T04:18:24;8.78;;;2.17;;
34102;SDS011;20381;54.498;18.206;2022-09-09T04:20:52;3.58;;;1.98;;
34102;SDS011;20381;54.498;18.206;2022-09-09T04:23:19;4.78;;;1.90;;
34102;SDS011;20381;54.498;18.206;2022-09-09T04:25:46;3.02;;;1.75;;
34102;SDS011;20381;54.498;18.206;2022-09-09T04:28:18;2.35;;;1.47;;
34102;SDS011;20381;54.498;18.206;2022-09-09T04:30:47;4.05;;;1.50;;
34102;SDS011;20381;54.498;18.206;2022-09-09T04:33:13;3.70;;;2.00;;
34102;SDS011;20381;54.498;18.206;2022-09-09T04:35:48;3.65;;;1.60;;
34102;SDS011;20381;54.498;18.206;2022-09-09T04:38:14;4.60;;;2.30;;
34102;SDS011;20381;54.498;18.206;2022-09-09T04:40:43;7.17;;;2.00;;
34102;SDS011;20381;54.498;18.206;2022-09-09T04:43:13;3.27;;;2.30;;
34102;SDS011;20381;54.498;18.206;2022-09-09T04:45:41;4.35;;;2.75;;
34102;SDS011;20381;54.498;18.206;2022-09-09T04:48:08;6.80;;;2.72;;
34102;SDS011;20381;54.498;18.206;2022-09-09T04:50:38;3.80;;;1.95;;
34102;SDS011;20381;54.498;18.206;2022-09-09T04:53:06;4.35;;;2.25;;
34102;SDS011;20381;54.498;18.206;2022-09-09T04:55:33;10.65;;;2.65;;
34102;SDS011;20381;54.498;18.206;2022-09-09T04:58:04;2.33;;;1.70;;
34102;SDS011;20381;54.498;18.206;2022-09-09T05:00:37;3.22;;;1.70;;
34102;SDS011;20381;54.498;18.206;2022-09-09T05:03:04;3.65;;;1.87;;
34102;SDS011;20381;54.498;18.206;2022-09-09T05:05:32;4.92;;;2.00;;
34102;SDS011;20381;54.498;18.206;2022-09-09T05:08:03;3.30;;;2.60;;
34102;SDS011;20381;54.498;18.206;2022-09-09T05:10:32;4.80;;;2.58;;
34102;SDS011;20381;54.498;18.206;2022-09-09T05:12:59;4.47;;;2.45;;
34102;SDS011;20381;54.498;18.206;2022-09-09T05:15:26;2.97;;;2.27;;
34102;SDS011;20381;54.498;18.206;2022-09-09T05:17:56;2.83;;;2.37;;
34102;SDS011;20381;54.498;18.206;2022-09-09T05:20:28;4.05;;;2.60;;
34102;SDS011;20381;54.498;18.206;2022-09-09T05:22:56;3.62;;;2.70;;
34102;SDS011;20381;54.498;18.206;2022-09-09T05:25:24;5.47;;;2.20;;
34102;SDS011;20381;54.498;18.206;2022-09-09T05:27:53;3.45;;;2.10;;
34102;SDS011;20381;54.498;18.206;2022-09-09T05:30:20;4.10;;;2.33;;
34102;SDS011;20381;54.498;18.206;2022-09-09T05:32:49;3.00;;;2.20;;
34102;SDS011;20381;54.498;18.206;2022-09-09T05:35:16;5.12;;;2.47;;
34102;SDS011;20381;54.498;18.206;2022-09-09T05:37:46;7.80;;;2.02;;
34102;SDS011;20381;54.498;18.206;2022-09-09T05:40:13;4.60;;;2.20;;
34102;SDS011;20381;54.498;18.206;2022-09-09T05:42:40;2.40;;;2.08;;
34102;SDS011;20381;54.498;18.206;2022-09-09T05:45:08;4.35;;;2.45;;
34102;SDS011;20381;54.498;18.206;2022-09-09T05:47:35;3.17;;;2.05;;
34102;SDS011;20381;54.498;18.206;2022-09-09T05:50:02;6.15;;;2.70;;
34102;SDS011;20381;54.498;18.206;2022-09-09T05:52:30;5.03;;;3.47;;
34102;SDS011;20381;54.498;18.206;2022-09-09T05:54:58;5.58;;;2.15;;
34102;SDS011;20381;54.498;18.206;2022-09-09T05:57:25;3.42;;;2.15;;
34102;SDS011;20381;54.498;18.206;2022-09-09T05:59:51;4.57;;;2.43;;
34102;SDS011;20381;54.498;18.206;2022-09-09T06:02:19;6.05;;;2.58;;
34102;SDS011;20381;54.498;18.206;2022-09-09T06:04:45;3.85;;;2.27;;
34102;SDS011;20381;54.498;18.206;2022-09-09T06:07:12;3.27;;;2.23;;
34102;SDS011;20381;54.498;18.206;2022-09-09T06:14:33;2.92;;;2.20;;
34102;SDS011;20381;54.498;18.206;2022-09-09T06:17:00;6.17;;;2.17;;
34102;SDS011;20381;54.498;18.206;2022-09-09T06:19:27;3.92;;;2.20;;
34102;SDS011;20381;54.498;18.206;2022-09-09T06:21:54;4.53;;;2.50;;
34102;SDS011;20381;54.498;18.206;2022-09-09T06:24:21;3.80;;;2.03;;
34102;SDS011;20381;54.498;18.206;2022-09-09T06:26:50;4.78;;;2.10;;
34102;SDS011;20381;54.498;18.206;2022-09-09T06:29:16;4.03;;;2.37;;
34102;SDS011;20381;54.498;18.206;2022-09-09T06:31:43;5.80;;;2.20;;
34102;SDS011;20381;54.498;18.206;2022-09-09T06:34:10;3.10;;;2.20;;
34102;SDS011;20381;54.498;18.206;2022-09-09T06:36:37;3.37;;;2.00;;
34102;SDS011;20381;54.498;18.206;2022-09-09T06:39:05;3.08;;;2.35;;
34102;SDS011;20381;54.498;18.206;2022-09-09T06:41:34;6.30;;;2.55;;
34102;SDS011;20381;54.498;18.206;2022-09-09T06:44:01;2.17;;;1.90;;
34102;SDS011;20381;54.498;18.206;2022-09-09T06:46:33;3.77;;;2.00;;
34102;SDS011;20381;54.498;18.206;2022-09-09T06:49:01;2.67;;;1.70;;
34102;SDS011;20381;54.498;18.206;2022-09-09T06:51:31;2.00;;;1.75;;
34102;SDS011;20381;54.498;18.206;2022-09-09T06:54:01;2.83;;;1.80;;
34102;SDS011;20381;54.498;18.206;2022-09-09T06:56:30;3.12;;;1.60;;
34102;SDS011;20381;54.498;18.206;2022-09-09T06:59:01;2.87;;;2.02;;
34102;SDS011;20381;54.498;18.206;2022-09-09T07:01:32;2.55;;;1.80;;
34102;SDS011;20381;54.498;18.206;2022-09-09T07:04:01;1.77;;;1.30;;
34102;SDS011;20381;54.498;18.206;2022-09-09T07:06:31;2.35;;;1.42;;
34102;SDS011;20381;54.498;18.206;2022-09-09T07:09:00;1.98;;;1.42;;
34102;SDS011;20381;54.498;18.206;2022-09-09T07:11:31;1.87;;;1.42;;
34102;SDS011;20381;54.498;18.206;2022-09-09T07:14:02;3.40;;;1.60;;
34102;SDS011;20381;54.498;18.206;2022-09-09T07:16:29;2.87;;;1.70;;
34102;SDS011;20381;54.498;18.206;2022-09-09T07:18:57;1.90;;;1.67;;
34102;SDS011;20381;54.498;18.206;2022-09-09T07:21:26;2.47;;;1.50;;
34102;SDS011;20381;54.498;18.206;2022-09-09T07:23:56;2.40;;;1.22;;
34102;SDS011;20381;54.498;18.206;2022-09-09T07:26:26;8.08;;;1.70;;
34102;SDS011;20381;54.498;18.206;2022-09-09T07:28:56;3.47;;;1.77;;
34102;SDS011;20381;54.498;18.206;2022-09-09T07:31:27;2.00;;;1.62;;
34102;SDS011;20381;54.498;18.206;2022-09-09T07:33:56;3.58;;;1.92;;
34102;SDS011;20381;54.498;18.206;2022-09-09T07:36:25;2.47;;;1.95;;
34102;SDS011;20381;54.498;18.206;2022-09-09T07:38:58;3.62;;;2.20;;
34102;SDS011;20381;54.498;18.206;2022-09-09T07:44:11;1.87;;;1.50;;
34102;SDS011;20381;54.498;18.206;2022-09-09T07:46:36;3.90;;;1.95;;
34102;SDS011;20381;54.498;18.206;2022-09-09T07:49:05;2.58;;;1.62;;
34102;SDS011;20381;54.498;18.206;2022-09-09T07:51:33;3.15;;;1.65;;
34102;SDS011;20381;54.498;18.206;2022-09-09T07:54:03;1.70;;;1.25;;
34102;SDS011;20381;54.498;18.206;2022-09-09T07:56:35;1.82;;;1.20;;
34102;SDS011;20381;54.498;18.206;2022-09-09T07:59:04;2.52;;;1.30;;
34102;SDS011;20381;54.498;18.206;2022-09-09T08:01:37;2.37;;;1.50;;
34102;SDS011;20381;54.498;18.206;2022-09-09T08:04:14;4.15;;;1.17;;
34102;SDS011;20381;54.498;18.206;2022-09-09T08:06:42;1.47;;;1.07;;
34102;SDS011;20381;54.498;18.206;2022-09-09T08:09:18;1.30;;;1.10;;
34102;SDS011;20381;54.498;18.206;2022-09-09T08:11:46;1.75;;;1.22;;
34102;SDS011;20381;54.498;18.206;2022-09-09T08:14:13;1.65;;;1.22;;
34102;SDS011;20381;54.498;18.206;2022-09-09T08:16:41;1.87;;;1.30;;
34102;SDS011;20381;54.498;18.206;2022-09-09T08:19:12;1.87;;;1.37;;
34102;SDS011;20381;54.498;18.206;2022-09-09T08:21:40;2.40;;;1.42;;
34102;SDS011;20381;54.498;18.206;2022-09-09T08:24:09;1.42;;;1.17;;
34102;SDS011;20381;54.498;18.206;2022-09-09T08:26:38;1.87;;;1.27;;
34102;SDS011;20381;54.498;18.206;2022-09-09T08:29:07;3.33;;;1.55;;
34102;SDS011;20381;54.498;18.206;2022-09-09T08:31:39;1.75;;;1.32;;
34102;SDS011;20381;54.498;18.206;2022-09-09T08:34:08;3.33;;;1.30;;
34102;SDS011;20381;54.498;18.206;2022-09-09T08:36:37;1.80;;;1.20;;
34102;SDS011;20381;54.498;18.206;2022-09-09T08:39:07;3.72;;;1.60;;
34102;SDS011;20381;54.498;18.206;2022-09-09T08:50:22;1.60;;;1.30;;
34102;SDS011;20381;54.498;18.206;2022-09-09T08:55:39;1.80;;;1.45;;
34102;SDS011;20381;54.498;18.206;2022-09-09T09:06:45;2.92;;;1.70;;
34102;SDS011;20381;54.498;18.206;2022-09-09T09:09:21;1.37;;;1.07;;
34102;SDS011;20381;54.498;18.206;2022-09-09T09:12:22;2.62;;;1.72;;
34102;SDS011;20381;54.498;18.206;2022-09-09T09:14:52;1.90;;;1.40;;
34102;SDS011;20381;54.498;18.206;2022-09-09T09:17:20;3.58;;;1.20;;
34102;SDS011;20381;54.498;18.206;2022-09-09T09:19:49;1.25;;;0.80;;
34102;SDS011;20381;54.498;18.206;2022-09-09T09:22:20;2.98;;;1.02;;
34102;SDS011;20381;54.498;18.206;2022-09-09T09:25:02;2.35;;;1.50;;
34102;SDS011;20381;54.498;18.206;2022-09-09T09:27:40;1.12;;;0.98;;
34102;SDS011;20381;54.498;18.206;2022-09-09T09:30:23;1.85;;;1.17;;
34102;SDS011;20381;54.498;18.206;2022-09-09T09:32:55;1.10;;;0.90;;
34102;SDS011;20381;54.498;18.206;2022-09-09T09:35:25;1.27;;;1.17;;
34102;SDS011;20381;54.498;18.206;2022-09-09T09:37:54;1.20;;;1.10;;
34102;SDS011;20381;54.498;18.206;2022-09-09T09:40:21;3.42;;;1.62;;
34102;SDS011;20381;54.498;18.206;2022-09-09T09:42:49;1.95;;;1.30;;
34102;SDS011;20381;54.498;18.206;2022-09-09T09:45:34;2.45;;;1.25;;
34102;SDS011;20381;54.498;18.206;2022-09-09T09:48:14;2.85;;;1.35;;
34102;SDS011;20381;54.498;18.206;2022-09-09T09:53:25;1.70;;;1.25;;
34102;SDS011;20381;54.498;18.206;2022-09-09T09:55:59;1.22;;;1.07;;
34102;SDS011;20381;54.498;18.206;2022-09-09T10:01:23;1.90;;;1.35;;
34102;SDS011;20381;54.498;18.206;2022-09-09T10:03:58;2.47;;;1.50;;
34102;SDS011;20381;54.498;18.206;2022-09-09T10:06:44;1.40;;;1.20;;
34102;SDS011;20381;54.498;18.206;2022-09-09T10:09:28;1.82;;;1.40;;
34102;SDS011;20381;54.498;18.206;2022-09-09T10:12:09;1.70;;;1.10;;
34102;SDS011;20381;54.498;18.206;2022-09-09T10:14:56;1.50;;;1.40;;
34102;SDS011;20381;54.498;18.206;2022-09-09T10:30:01;2.00;;;1.67;;
34102;SDS011;20381;54.498;18.206;2022-09-09T10:32:53;3.12;;;2.08;;
34102;SDS011;20381;54.498;18.206;2022-09-09T10:38:25;2.40;;;1.87;;
34102;SDS011;20381;54.498;18.206;2022-09-09T10:44:21;2.98;;;1.82;;
34102;SDS011;20381;54.498;18.206;2022-09-09T10:50:08;3.75;;;1.98;;
34102;SDS011;20381;54.498;18.206;2022-09-09T10:55:51;2.20;;;2.00;;
34102;SDS011;20381;54.498;18.206;2022-09-09T10:58:29;2.90;;;2.05;;
34102;SDS011;20381;54.498;18.206;2022-09-09T11:01:22;2.80;;;2.15;;
34102;SDS011;20381;54.498;18.206;2022-09-09T11:03:50;3.40;;;2.17;;
34102;SDS011;20381;54.498;18.206;2022-09-09T11:06:24;4.25;;;2.10;;
34102;SDS011;20381;54.498;18.206;2022-09-09T11:08:58;2.55;;;1.82;;
34102;SDS011;20381;54.498;18.206;2022-09-09T11:11:39;2.27;;;2.08;;
34102;SDS011;20381;54.498;18.206;2022-09-09T11:17:14;4.20;;;2.05;;
34102;SDS011;20381;54.498;18.206;2022-09-09T11:19:41;3.00;;;1.90;;
34102;SDS011;20381;54.498;18.206;2022-09-09T11:22:15;2.83;;;2.33;;
34102;SDS011;20381;54.498;18.206;2022-09-09T11:28:08;5.45;;;2.35;;
34102;SDS011;20381;54.498;18.206;2022-09-09T11:40:15;2.87;;;2.10;;
34102;SDS011;20381;54.498;18.206;2022-09-09T11:43:11;2.42;;;2.22;;
34102;SDS011;20381;54.498;18.206;2022-09-09T11:45:51;2.50;;;2.30;;
34102;SDS011;20381;54.498;18.206;2022-09-09T11:48:26;3.00;;;2.70;;
34102;SDS011;20381;54.498;18.206;2022-09-09T11:50:59;2.45;;;2.00;;
34102;SDS011;20381;54.498;18.206;2022-09-09T11:53:46;4.05;;;2.00;;
34102;SDS011;20381;54.498;18.206;2022-09-09T11:56:32;2.40;;;2.12;;
34102;SDS011;20381;54.498;18.206;2022-09-09T11:59:26;4.70;;;2.12;;
34102;SDS011;20381;54.498;18.206;2022-09-09T12:02:00;4.58;;;2.30;;
34102;SDS011;20381;54.498;18.206;2022-09-09T12:04:37;2.33;;;2.05;;
34102;SDS011;20381;54.498;18.206;2022-09-09T12:12:52;3.90;;;2.52;;
34102;SDS011;20381;54.498;18.206;2022-09-09T12:15:26;4.10;;;2.00;;
34102;SDS011;20381;54.498;18.206;2022-09-09T12:17:55;2.90;;;1.92;;
34102;SDS011;20381;54.498;18.206;2022-09-09T12:20:35;2.22;;;2.02;;
34102;SDS011;20381;54.498;18.206;2022-09-09T12:26:05;2.20;;;1.87;;
34102;SDS011;20381;54.498;18.206;2022-09-09T12:37:35;2.35;;;2.10;;
34102;SDS011;20381;54.498;18.206;2022-09-09T12:40:21;3.95;;;2.33;;
34102;SDS011;20381;54.498;18.206;2022-09-09T12:42:51;3.37;;;2.77;;
34102;SDS011;20381;54.498;18.206;2022-09-09T12:45:23;2.27;;;2.08;;
34102;SDS011;20381;54.498;18.206;2022-09-09T12:47:54;2.83;;;2.30;;
34102;SDS011;20381;54.498;18.206;2022-09-09T12:50:24;2.22;;;2.02;;
34102;SDS011;20381;54.498;18.206;2022-09-09T12:52:54;2.80;;;2.22;;
34102;SDS011;20381;54.498;18.206;2022-09-09T12:55:25;2.87;;;2.50;;
34102;SDS011;20381;54.498;18.206;2022-09-09T12:57:59;3.58;;;2.87;;
34102;SDS011;20381;54.498;18.206;2022-09-09T13:00:29;3.92;;;3.33;;
34102;SDS011;20381;54.498;18.206;2022-09-09T13:02:57;4.08;;;3.60;;
34102;SDS011;20381;54.498;18.206;2022-09-09T13:05:28;3.27;;;2.80;;
34102;SDS011;20381;54.498;18.206;2022-09-09T13:08:06;4.28;;;3.65;;
34102;SDS011;20381;54.498;18.206;2022-09-09T13:13:26;7.15;;;5.55;;
34102;SDS011;20381;54.498;18.206;2022-09-09T13:16:01;4.35;;;3.62;;
34102;SDS011;20381;54.498;18.206;2022-09-09T13:18:36;5.28;;;3.98;;
34102;SDS011;20381;54.498;18.206;2022-09-09T13:21:05;4.90;;;3.52;;
34102;SDS011;20381;54.498;18.206;2022-09-09T13:23:33;3.72;;;3.10;;
34102;SDS011;20381;54.498;18.206;2022-09-09T13:26:03;3.85;;;2.60;;
34102;SDS011;20381;54.498;18.206;2022-09-09T13:28:52;3.25;;;2.47;;
34102;SDS011;20381;54.498;18.206;2022-09-09T13:31:28;6.87;;;2.67;;
34102;SDS011;20381;54.498;18.206;2022-09-09T13:33:58;4.90;;;2.42;;
34102;SDS011;20381;54.498;18.206;2022-09-09T13:36:39;2.75;;;2.45;;
34102;SDS011;20381;54.498;18.206;2022-09-09T13:39:15;5.28;;;3.12;;
34102;SDS011;20381;54.498;18.206;2022-09-09T13:41:44;3.70;;;3.33;;
34102;SDS011;20381;54.498;18.206;2022-09-09T13:44:14;6.50;;;3.70;;
34102;SDS011;20381;54.498;18.206;2022-09-09T13:46:59;7.10;;;5.58;;
34102;SDS011;20381;54.498;18.206;2022-09-09T13:49:32;7.33;;;6.70;;
34102;SDS011;20381;54.498;18.206;2022-09-09T13:52:09;4.40;;;4.00;;
34102;SDS011;20381;54.498;18.206;2022-09-09T13:54:42;2.77;;;2.33;;
34102;SDS011;20381;54.498;18.206;2022-09-09T13:57:21;5.45;;;2.40;;
34102;SDS011;20381;54.498;18.206;2022-09-09T13:59:51;3.67;;;2.55;;
34102;SDS011;20381;54.498;18.206;2022-09-09T14:02:20;3.17;;;2.87;;
34102;SDS011;20381;54.498;18.206;2022-09-09T14:04:48;3.90;;;2.65;;
34102;SDS011;20381;54.498;18.206;2022-09-09T14:07:16;5.70;;;3.30;;
34102;SDS011;20381;54.498;18.206;2022-09-09T14:09:44;3.95;;;2.77;;
34102;SDS011;20381;54.498;18.206;2022-09-09T14:12:13;5.55;;;3.30;;
34102;SDS011;20381;54.498;18.206;2022-09-09T14:14:41;3.75;;;2.62;;
34102;SDS011;20381;54.498;18.206;2022-09-09T14:17:09;4.67;;;2.90;;
34102;SDS011;20381;54.498;18.206;2022-09-09T14:19:36;4.10;;;3.70;;
34102;SDS011;20381;54.498;18.206;2022-09-09T14:22:03;5.72;;;3.77;;
34102;SDS011;20381;54.498;18.206;2022-09-09T14:24:30;8.48;;;3.87;;
34102;SDS011;20381;54.498;18.206;2022-09-09T14:26:56;4.20;;;3.80;;
34102;SDS011;20381;54.498;18.206;2022-09-09T14:29:23;5.10;;;4.20;;
34102;SDS011;20381;54.498;18.206;2022-09-09T14:31:51;4.97;;;4.40;;
34102;SDS011;20381;54.498;18.206;2022-09-09T14:34:18;4.62;;;4.15;;
34102;SDS011;20381;54.498;18.206;2022-09-09T14:36:45;4.73;;;4.20;;
34102;SDS011;20381;54.498;18.206;2022-09-09T14:39:12;5.33;;;4.33;;
34102;SDS011;20381;54.498;18.206;2022-09-09T14:41:39;7.93;;;4.40;;
34102;SDS011;20381;54.498;18.206;2022-09-09T14:44:05;5.47;;;3.77;;
34102;SDS011;20381;54.498;18.206;2022-09-09T14:46:32;6.85;;;4.50;;
34102;SDS011;20381;54.498;18.206;2022-09-09T14:48:59;4.78;;;3.83;;
34102;SDS011;20381;54.498;18.206;2022-09-09T14:51:25;5.73;;;4.43;;
34102;SDS011;20381;54.498;18.206;2022-09-09T14:53:58;5.55;;;4.60;;
34102;SDS011;20381;54.498;18.206;2022-09-09T14:56:26;5.50;;;4.40;;
34102;SDS011;20381;54.498;18.206;2022-09-09T14:58:57;6.40;;;4.53;;
34102;SDS011;20381;54.498;18.206;2022-09-09T15:01:26;6.37;;;5.15;;
34102;SDS011;20381;54.498;18.206;2022-09-09T15:03:55;5.37;;;4.33;;
34102;SDS011;20381;54.498;18.206;2022-09-09T15:06:29;6.05;;;4.92;;
34102;SDS011;20381;54.498;18.206;2022-09-09T15:08:58;4.30;;;3.83;;
34102;SDS011;20381;54.498;18.206;2022-09-09T15:11:27;7.58;;;4.60;;
34102;SDS011;20381;54.498;18.206;2022-09-09T15:13:56;5.62;;;4.87;;
34102;SDS011;20381;54.498;18.206;2022-09-09T15:16:25;7.05;;;5.20;;
34102;SDS011;20381;54.498;18.206;2022-09-09T15:18:55;11.18;;;5.50;;
34102;SDS011;20381;54.498;18.206;2022-09-09T15:21:25;6.47;;;5.28;;
34102;SDS011;20381;54.498;18.206;2022-09-09T15:23:54;6.25;;;4.80;;
34102;SDS011;20381;54.498;18.206;2022-09-09T15:26:22;9.40;;;6.92;;
34102;SDS011;20381;54.498;18.206;2022-09-09T15:28:50;9.28;;;5.10;;
34102;SDS011;20381;54.498;18.206;2022-09-09T15:33:50;6.75;;;5.87;;
34102;SDS011;20381;54.498;18.206;2022-09-09T15:36:20;8.03;;;6.72;;
34102;SDS011;20381;54.498;18.206;2022-09-09T15:38:50;9.00;;;6.25;;
34102;SDS011;20381;54.498;18.206;2022-09-09T15:41:18;7.78;;;6.90;;
34102;SDS011;20381;54.498;18.206;2022-09-09T15:43:48;9.35;;;7.70;;
34102;SDS011;20381;54.498;18.206;2022-09-09T15:48:56;7.45;;;5.80;;
34102;SDS011;20381;54.498;18.206;2022-09-09T15:51:38;7.50;;;6.47;;
34102;SDS011;20381;54.498;18.206;2022-09-09T15:54:08;6.55;;;5.65;;
34102;SDS011;20381;54.498;18.206;2022-09-09T15:56:38;6.28;;;5.60;;
34102;SDS011;20381;54.498;18.206;2022-09-09T15:59:05;6.87;;;5.97;;
34102;SDS011;20381;54.498;18.206;2022-09-09T16:01:32;9.13;;;6.62;;
34102;SDS011;20381;54.498;18.206;2022-09-09T16:04:00;7.60;;;6.15;;
34102;SDS011;20381;54.498;18.206;2022-09-09T16:06:28;13.22;;;6.65;;
34102;SDS011;20381;54.498;18.206;2022-09-09T16:08:56;7.17;;;6.47;;
34102;SDS011;20381;54.498;18.206;2022-09-09T16:11:31;7.70;;;6.78;;
34102;SDS011;20381;54.498;18.206;2022-09-09T16:13:57;9.33;;;7.17;;
34102;SDS011;20381;54.498;18.206;2022-09-09T16:16:26;8.40;;;7.17;;
34102;SDS011;20381;54.498;18.206;2022-09-09T16:18:57;8.33;;;7.17;;
34102;SDS011;20381;54.498;18.206;2022-09-09T16:21:27;9.00;;;7.50;;
34102;SDS011;20381;54.498;18.206;2022-09-09T16:23:59;12.93;;;9.23;;
34102;SDS011;20381;54.498;18.206;2022-09-09T16:26:27;10.00;;;7.85;;
34102;SDS011;20381;54.498;18.206;2022-09-09T16:28:57;11.12;;;7.30;;
34102;SDS011;20381;54.498;18.206;2022-09-09T16:31:26;8.35;;;7.40;;
34102;SDS011;20381;54.498;18.206;2022-09-09T16:33:54;8.18;;;7.37;;
34102;SDS011;20381;54.498;18.206;2022-09-09T16:36:23;11.10;;;8.93;;
34102;SDS011;20381;54.498;18.206;2022-09-09T16:38:54;11.78;;;9.75;;
34102;SDS011;20381;54.498;18.206;2022-09-09T16:41:23;9.88;;;8.68;;
34102;SDS011;20381;54.498;18.206;2022-09-09T16:43:55;10.50;;;8.25;;
34102;SDS011;20381;54.498;18.206;2022-09-09T16:46:25;8.93;;;8.03;;
34102;SDS011;20381;54.498;18.206;2022-09-09T16:48:55;9.05;;;7.45;;
34102;SDS011;20381;54.498;18.206;2022-09-09T16:51:25;12.47;;;8.23;;
34102;SDS011;20381;54.498;18.206;2022-09-09T16:53:58;7.75;;;6.92;;
34102;SDS011;20381;54.498;18.206;2022-09-09T16:56:28;7.85;;;7.05;;
34102;SDS011;20381;54.498;18.206;2022-09-09T16:59:03;9.25;;;7.65;;
34102;SDS011;20381;54.498;18.206;2022-09-09T17:01:35;9.60;;;7.80;;
34102;SDS011;20381;54.498;18.206;2022-09-09T17:04:07;11.55;;;9.05;;
34102;SDS011;20381;54.498;18.206;2022-09-09T17:06:37;11.97;;;8.95;;
34102;SDS011;20381;54.498;18.206;2022-09-09T17:09:05;11.93;;;9.58;;
34102;SDS011;20381;54.498;18.206;2022-09-09T17:11:35;12.70;;;8.63;;
34102;SDS011;20381;54.498;18.206;2022-09-09T17:14:04;9.75;;;8.00;;
34102;SDS011;20381;54.498;18.206;2022-09-09T17:16:34;13.70;;;8.78;;
34102;SDS011;20381;54.498;18.206;2022-09-09T17:19:02;13.05;;;10.25;;
34102;SDS011;20381;54.498;18.206;2022-09-09T17:21:30;12.98;;;10.40;;
34102;SDS011;20381;54.498;18.206;2022-09-09T17:23:59;9.48;;;8.13;;
34102;SDS011;20381;54.498;18.206;2022-09-09T17:26:27;9.40;;;8.20;;
34102;SDS011;20381;54.498;18.206;2022-09-09T17:28:57;10.23;;;8.70;;
34102;SDS011;20381;54.498;18.206;2022-09-09T17:31:26;10.50;;;9.18;;
34102;SDS011;20381;54.498;18.206;2022-09-09T17:33:54;10.45;;;9.18;;
34102;SDS011;20381;54.498;18.206;2022-09-09T17:36:25;15.75;;;10.50;;
34102;SDS011;20381;54.498;18.206;2022-09-09T17:38:55;13.20;;;10.95;;
34102;SDS011;20381;54.498;18.206;2022-09-09T17:43:55;11.70;;;10.50;;
34102;SDS011;20381;54.498;18.206;2022-09-09T17:46:23;14.23;;;10.72;;
34102;SDS011;20381;54.498;18.206;2022-09-09T17:48:56;13.32;;;10.63;;
34102;SDS011;20381;54.498;18.206;2022-09-09T17:51:29;15.53;;;10.78;;